sensor_id;sensor_type;location;lat;lon;timestamp;pressure;altitude;pressure_sealevel;temperature;humidity
50087;BME280;35967;50.718;7.050;2022-09-13T00:03:56;100254.41;;;20.64;56.50
50087;BME280;35967;50.718;7.050;2022-09-13T00:13:58;100237.16;;;20.62;56.27
50087;BME280;35967;50.718;7.050;2022-09-13T00:24:00;100229.06;;;20.65;55.67
50087;BME280;35967;50.718;7.050;2022-09-13T00:34:02;100209.03;;;20.53;56.51
50087;BME280;35967;50.718;7.050;2022-09-13T00:44:04;100239.88;;;20.47;56.81
50087;BME280;35967;50.718;7.050;2022-09-13T00:54:07;100220.13;;;19.93;58.88
50087;BME280;35967;50.718;7.050;2022-09-13T01:04:09;100215.59;;;20.21;58.44
50087;BME280;35967;50.718;7.050;2022-09-13T01:14:13;100233.06;;;20.08;58.59
50087;BME280;35967;50.718;7.050;2022-09-13T01:45:23;100235.16;;;19.90;60.12
50087;BME280;35967;50.718;7.050;2022-09-13T01:55:34;100234.63;;;19.84;60.98
50087;BME280;35967;50.718;7.050;2022-09-13T02:05:45;100224.56;;;19.78;61.20
50087;BME280;35967;50.718;7.050;2022-09-13T02:15:52;100223.53;;;19.81;61.27
50087;BME280;35967;50.718;7.050;2022-09-13T02:25:58;100216.88;;;19.90;61.04
50087;BME280;35967;50.718;7.050;2022-09-13T02:36:04;100196.50;;;19.95;60.83
50087;BME280;35967;50.718;7.050;2022-09-13T02:56:34;100195.22;;;19.75;61.61
50087;BME280;35967;50.718;7.050;2022-09-13T03:06:41;100196.47;;;19.82;61.41
50087;BME280;35967;50.718;7.050;2022-09-13T03:27:22;100190.84;;;19.49;63.62
50087;BME280;35967;50.718;7.050;2022-09-13T03:47:55;100174.00;;;19.66;63.94
50087;BME280;35967;50.718;7.050;2022-09-13T03:57:57;100155.94;;;19.76;63.69
50087;BME280;35967;50.718;7.050;2022-09-13T04:08:00;100152.50;;;19.76;64.62
50087;BME280;35967;50.718;7.050;2022-09-13T04:18:02;100189.78;;;19.52;65.66
50087;BME280;35967;50.718;7.050;2022-09-13T04:28:04;100198.06;;;19.59;66.00
50087;BME280;35967;50.718;7.050;2022-09-13T04:38:07;100197.81;;;19.62;66.03
50087;BME280;35967;50.718;7.050;2022-09-13T04:48:09;100221.53;;;19.71;66.06
50087;BME280;35967;50.718;7.050;2022-09-13T04:58:11;100220.72;;;19.71;65.07
50087;BME280;35967;50.718;7.050;2022-09-13T05:08:13;100220.28;;;19.64;65.71
50087;BME280;35967;50.718;7.050;2022-09-13T05:18:15;100211.13;;;19.84;64.35
50087;BME280;35967;50.718;7.050;2022-09-13T05:28:16;100200.03;;;19.81;64.31
50087;BME280;35967;50.718;7.050;2022-09-13T05:38:18;100199.63;;;19.87;63.73
50087;BME280;35967;50.718;7.050;2022-09-13T05:48:20;100207.47;;;19.87;65.50
50087;BME280;35967;50.718;7.050;2022-09-13T05:58:22;100200.47;;;19.88;63.18
50087;BME280;35967;50.718;7.050;2022-09-13T06:08:25;100187.91;;;20.06;63.58
50087;BME280;35967;50.718;7.050;2022-09-13T06:18:27;100181.84;;;20.18;61.59
50087;BME280;35967;50.718;7.050;2022-09-13T06:28:30;100192.31;;;20.05;62.58
50087;BME280;35967;50.718;7.050;2022-09-13T06:38:38;100198.16;;;20.09;64.00
50087;BME280;35967;50.718;7.050;2022-09-13T06:48:41;100194.97;;;20.29;64.33
50087;BME280;35967;50.718;7.050;2022-09-13T06:58:46;100175.03;;;20.53;63.74
50087;BME280;35967;50.718;7.050;2022-09-13T07:08:53;100181.91;;;20.67;63.89
50087;BME280;35967;50.718;7.050;2022-09-13T07:19:06;100185.53;;;20.64;65.02
50087;BME280;35967;50.718;7.050;2022-09-13T07:29:12;100185.13;;;20.70;64.74
50087;BME280;35967;50.718;7.050;2022-09-13T07:39:17;100190.59;;;20.91;65.39
50087;BME280;35967;50.718;7.050;2022-09-13T07:49:23;100187.56;;;21.09;62.94
50087;BME280;35967;50.718;7.050;2022-09-13T07:59:25;100193.66;;;21.09;63.04
50087;BME280;35967;50.718;7.050;2022-09-13T08:09:30;100183.50;;;21.40;60.45
50087;BME280;35967;50.718;7.050;2022-09-13T08:19:32;100171.75;;;21.57;61.24
50087;BME280;35967;50.718;7.050;2022-09-13T08:29:34;100176.19;;;21.80;59.61
50087;BME280;35967;50.718;7.050;2022-09-13T08:39:39;100180.72;;;22.12;60.41
50087;BME280;35967;50.718;7.050;2022-09-13T08:49:47;100180.44;;;22.26;59.93
50087;BME280;35967;50.718;7.050;2022-09-13T09:10:23;100183.47;;;22.77;58.10
50087;BME280;35967;50.718;7.050;2022-09-13T09:20:29;100195.63;;;22.78;57.77
50087;BME280;35967;50.718;7.050;2022-09-13T09:30:42;100212.63;;;23.27;56.12
50087;BME280;35967;50.718;7.050;2022-09-13T09:40:46;100205.91;;;23.35;55.24
50087;BME280;35967;50.718;7.050;2022-09-13T09:50:51;100199.19;;;23.73;54.19
50087;BME280;35967;50.718;7.050;2022-09-13T10:00:57;100207.91;;;23.94;54.22
50087;BME280;35967;50.718;7.050;2022-09-13T10:10:59;100196.63;;;24.14;54.11
50087;BME280;35967;50.718;7.050;2022-09-13T10:21:23;100187.38;;;24.19;52.58
50087;BME280;35967;50.718;7.050;2022-09-13T10:31:39;100181.00;;;24.32;52.79
50087;BME280;35967;50.718;7.050;2022-09-13T10:41:49;100156.81;;;24.38;52.77
50087;BME280;35967;50.718;7.050;2022-09-13T10:51:52;100153.78;;;24.52;51.64
50087;BME280;35967;50.718;7.050;2022-09-13T11:12:39;100138.16;;;24.70;51.52
50087;BME280;35967;50.718;7.050;2022-09-13T12:04:53;100116.84;;;25.78;49.89
50087;BME280;35967;50.718;7.050;2022-09-13T12:25:40;100090.06;;;26.29;48.34
50087;BME280;35967;50.718;7.050;2022-09-13T12:36:08;100090.72;;;26.13;49.45
50087;BME280;35967;50.718;7.050;2022-09-13T13:07:15;100064.25;;;26.59;46.98
50087;BME280;35967;50.718;7.050;2022-09-13T13:17:40;100069.03;;;26.19;48.21
50087;BME280;35967;50.718;7.050;2022-09-13T13:27:43;100064.88;;;26.17;48.05
50087;BME280;35967;50.718;7.050;2022-09-13T13:37:49;100059.38;;;26.28;48.09
50087;BME280;35967;50.718;7.050;2022-09-13T13:58:14;100040.19;;;26.62;45.03
50087;BME280;35967;50.718;7.050;2022-09-13T14:28:38;100016.47;;;26.44;45.40
50087;BME280;35967;50.718;7.050;2022-09-13T14:38:50;100021.13;;;26.32;46.51
50087;BME280;35967;50.718;7.050;2022-09-13T14:48:56;100016.19;;;26.29;47.73
50087;BME280;35967;50.718;7.050;2022-09-13T14:59:03;100022.06;;;26.23;47.53
50087;BME280;35967;50.718;7.050;2022-09-13T15:29:27;100012.91;;;25.81;51.39
50087;BME280;35967;50.718;7.050;2022-09-13T15:40:11;100010.50;;;25.70;51.76
50087;BME280;35967;50.718;7.050;2022-09-13T15:50:19;100015.31;;;25.46;53.48
50087;BME280;35967;50.718;7.050;2022-09-13T16:00:24;100020.31;;;25.49;53.93
50087;BME280;35967;50.718;7.050;2022-09-13T16:10:27;100024.97;;;25.28;56.71
50087;BME280;35967;50.718;7.050;2022-09-13T16:20:31;100025.53;;;25.22;61.30
50087;BME280;35967;50.718;7.050;2022-09-13T16:30:33;100038.44;;;24.77;67.78
50087;BME280;35967;50.718;7.050;2022-09-13T16:40:39;100045.78;;;24.44;72.16
50087;BME280;35967;50.718;7.050;2022-09-13T16:50:42;100060.47;;;24.27;75.48
50087;BME280;35967;50.718;7.050;2022-09-13T17:00:43;100059.06;;;24.03;78.22
50087;BME280;35967;50.718;7.050;2022-09-13T17:10:45;100057.13;;;24.15;78.36
50087;BME280;35967;50.718;7.050;2022-09-13T17:20:48;100055.44;;;23.94;79.00
50087;BME280;35967;50.718;7.050;2022-09-13T17:30:50;100067.81;;;23.83;80.24
50087;BME280;35967;50.718;7.050;2022-09-13T17:41:11;100064.31;;;23.72;80.26
50087;BME280;35967;50.718;7.050;2022-09-13T17:51:15;100074.56;;;23.66;79.46
50087;BME280;35967;50.718;7.050;2022-09-13T18:01:18;100067.34;;;23.68;80.03
50087;BME280;35967;50.718;7.050;2022-09-13T18:11:20;100073.78;;;23.44;79.16
50087;BME280;35967;50.718;7.050;2022-09-13T18:21:24;100085.63;;;23.59;77.19
50087;BME280;35967;50.718;7.050;2022-09-13T18:31:28;100080.63;;;23.25;77.50
50087;BME280;35967;50.718;7.050;2022-09-13T18:41:39;100090.66;;;22.99;77.95
50087;BME280;35967;50.718;7.050;2022-09-13T18:51:42;100064.47;;;23.09;79.46
50087;BME280;35967;50.718;7.050;2022-09-13T19:01:45;100065.69;;;23.05;79.56
50087;BME280;35967;50.718;7.050;2022-09-13T19:11:51;100053.97;;;22.88;79.18
50087;BME280;35967;50.718;7.050;2022-09-13T19:21:53;100048.50;;;22.91;80.21
50087;BME280;35967;50.718;7.050;2022-09-13T19:31:55;100030.56;;;22.96;79.94
50087;BME280;35967;50.718;7.050;2022-09-13T19:42:01;100037.81;;;23.13;78.91
50087;BME280;35967;50.718;7.050;2022-09-13T19:52:03;100053.22;;;22.76;81.00
50087;BME280;35967;50.718;7.050;2022-09-13T20:02:05;100041.75;;;22.56;82.43
50087;BME280;35967;50.718;7.050;2022-09-13T20:12:08;100044.00;;;22.60;81.42
50087;BME280;35967;50.718;7.050;2022-09-13T20:22:13;100044.50;;;22.54;81.34
50087;BME280;35967;50.718;7.050;2022-09-13T20:32:15;100044.41;;;22.12;82.43
50087;BME280;35967;50.718;7.050;2022-09-13T20:42:17;100036.00;;;22.29;82.00
50087;BME280;35967;50.718;7.050;2022-09-13T20:52:19;100033.00;;;22.34;82.50
50087;BME280;35967;50.718;7.050;2022-09-13T21:02:21;100023.53;;;22.54;80.87
50087;BME280;35967;50.718;7.050;2022-09-13T21:12:22;100009.53;;;22.32;82.21
50087;BME280;35967;50.718;7.050;2022-09-13T21:22:25;100005.28;;;22.20;83.39
50087;BME280;35967;50.718;7.050;2022-09-13T21:32:27;100004.63;;;22.06;84.14
50087;BME280;35967;50.718;7.050;2022-09-13T21:42:29;99995.53;;;22.22;83.57
50087;BME280;35967;50.718;7.050;2022-09-13T21:52:31;99988.81;;;22.29;83.38
50087;BME280;35967;50.718;7.050;2022-09-13T22:02:34;99979.81;;;22.11;84.63
50087;BME280;35967;50.718;7.050;2022-09-13T22:12:36;99980.06;;;22.08;84.81
50087;BME280;35967;50.718;7.050;2022-09-13T22:22:38;99982.66;;;21.86;85.18
50087;BME280;35967;50.718;7.050;2022-09-13T22:32:40;99964.56;;;21.83;85.61
50087;BME280;35967;50.718;7.050;2022-09-13T22:42:42;99944.03;;;21.44;86.56
50087;BME280;35967;50.718;7.050;2022-09-13T22:52:43;99955.56;;;21.53;86.40
50087;BME280;35967;50.718;7.050;2022-09-13T23:02:45;99952.00;;;21.54;86.38
50087;BME280;35967;50.718;7.050;2022-09-13T23:12:47;99961.91;;;21.39;87.06
50087;BME280;35967;50.718;7.050;2022-09-13T23:22:49;99964.38;;;21.41;87.57
50087;BME280;35967;50.718;7.050;2022-09-13T23:32:51;99946.88;;;21.53;87.28
50087;BME280;35967;50.718;7.050;2022-09-13T23:42:53;99950.22;;;21.43;86.67
50087;BME280;35967;50.718;7.050;2022-09-13T23:52:55;99950.47;;;21.40;86.91
